Time;durP1;ratioP1;P1;durP2;ratioP2;P2;SDS_P1;SDS_P2;PMS_P1;PMS_P2;Temp;Humidity;BMP_temperature;BMP_pressure;BME280_temperature;BME280_humidity;BME280_pressure;Samples;Min_cycle;Max_cycle;Signal;HPM_P1;HPM_P2
2021/04/13 00:01:23;;;;;;;5.08;4.45;;;;;;;2.00;77.65;97151.18;1724945;80;21095;-77
2021/04/13 00:04:03;;;;;;;7.67;5.65;;;;;;;2.03;77.65;97154.80;1735777;80;21122;-77
2021/04/13 00:06:43;;;;;;;5.75;4.70;;;;;;;2.03;77.71;97155.61;1756045;80;21315;-77
2021/04/13 00:09:17;;;;;;;7.25;4.15;;;;;;;2.01;77.68;97165.16;1752903;81;21221;-77
2021/04/13 00:11:49;;;;;;;6.10;4.75;;;;;;;1.92;77.67;97164.98;1737164;81;21466;-77
2021/04/13 00:14:19;;;;;;;5.80;4.50;;;;;;;1.85;77.73;97162.05;1746314;81;21122;-77
2021/04/13 00:16:47;;;;;;;7.05;4.83;;;;;;;1.83;77.70;97160.53;1750122;81;21226;-76
2021/04/13 00:19:13;;;;;;;5.45;4.85;;;;;;;1.86;77.81;97166.72;1741793;81;21071;-77
2021/04/13 00:21:43;;;;;;;7.15;5.12;;;;;;;1.87;77.87;97167.06;1738304;81;21256;-77
2021/04/13 00:24:20;;;;;;;5.33;4.83;;;;;;;1.80;77.71;97162.85;1750307;81;21341;-77
2021/04/13 00:26:53;;;;;;;9.93;6.05;;;;;;;1.75;77.88;97164.44;1690956;81;21336;-76
2021/04/13 00:29:23;;;;;;;6.15;5.25;;;;;;;1.73;78.02;97172.70;1747548;81;21104;-77
2021/04/13 00:31:49;;;;;;;7.78;5.37;;;;;;;1.70;78.01;97162.67;1744287;81;21441;-76
2021/04/13 00:34:29;;;;;;;7.62;5.30;;;;;;;1.67;77.98;97168.02;1746923;81;21086;-76
2021/04/13 00:37:20;;;;;;;5.30;4.78;;;;;;;1.66;77.95;97166.84;1743437;81;21114;-79
2021/04/13 00:39:44;;;;;;;6.72;5.92;;;;;;;1.67;78.13;97171.04;1752046;81;21412;-80
2021/04/13 00:42:12;;;;;;;6.78;6.00;;;;;;;1.68;78.21;97173.48;1711861;81;21261;-80
2021/04/13 00:44:48;;;;;;;8.65;6.97;;;;;;;1.66;78.29;97170.69;1745731;81;21134;-76
2021/04/13 00:47:29;;;;;;;7.20;6.42;;;;;;;1.63;78.35;97166.60;1713635;82;21544;-77
2021/04/13 00:49:58;;;;;;;9.05;6.50;;;;;;;1.65;78.26;97167.30;1712731;82;21464;-77
2021/04/13 00:52:40;;;;;;;7.45;6.55;;;;;;;1.72;78.28;97169.78;1711158;81;21240;-76
2021/04/13 00:55:09;;;;;;;12.60;7.97;;;;;;;1.78;78.21;97169.80;1750279;81;21121;-77
2021/04/13 00:57:42;;;;;;;7.40;6.22;;;;;;;1.84;78.29;97171.95;1745304;81;21253;-77
2021/04/13 01:00:10;;;;;;;;;;;;;;;1.85;78.17;97175.33;1738631;81;21106;-77
2021/04/13 01:02:37;;;;;;;7.10;6.40;;;;;;;1.83;78.07;97179.75;1736194;81;20129;-78
2021/04/13 01:05:17;;;;;;;8.75;7.83;;;;;;;1.76;77.96;97179.34;1754454;80;21220;-77
2021/04/13 01:07:51;;;;;;;8.88;7.60;;;;;;;1.73;78.06;97177.00;1751863;80;21232;-77
2021/04/13 01:10:35;;;;;;;9.30;7.47;;;;;;;1.73;77.98;97177.82;1757026;80;21095;-77
2021/04/13 01:13:14;;;;;;;6.72;6.03;;;;;;;1.72;77.98;97178.75;1735223;80;21233;-77
2021/04/13 01:15:46;;;;;;;6.20;5.60;;;;;;;1.69;78.12;97181.53;1751575;80;21110;-77
2021/04/13 01:18:20;;;;;;;8.28;6.53;;;;;;;1.54;78.10;97185.16;1755730;80;21314;-78
2021/04/13 01:21:44;;;;;;;7.00;6.15;;;;;;;1.48;78.26;97183.03;1740347;80;21098;-80
2021/04/13 01:24:13;;;;;;;6.78;6.10;;;;;;;1.48;78.42;97181.29;1756005;80;21552;-79
2021/04/13 01:26:44;;;;;;;5.90;5.28;;;;;;;1.52;78.39;97178.05;1753306;80;21106;-80
2021/04/13 01:29:10;;;;;;;6.47;5.55;;;;;;;1.60;78.40;97180.87;1758861;80;21156;-80
2021/04/13 01:31:44;;;;;;;6.37;5.70;;;;;;;1.63;78.32;97179.41;1746849;80;21134;-80
2021/04/13 01:34:28;;;;;;;7.30;5.97;;;;;;;1.64;78.41;97182.33;1754393;80;21138;-80
2021/04/13 01:42:39;;;;;;;7.85;5.72;;;;;;;1.62;78.17;97193.11;1725206;81;21153;-79
2021/04/13 01:45:09;;;;;;;7.85;6.50;;;;;;;1.62;78.13;97201.27;1720197;81;21351;-78
2021/04/13 01:47:35;;;;;;;7.70;6.47;;;;;;;1.64;78.15;97198.97;1730575;81;21424;-80
2021/04/13 01:50:07;;;;;;;6.37;5.22;;;;;;;1.67;78.19;97196.20;1732301;81;21115;-80
2021/04/13 01:52:36;;;;;;;5.72;5.17;;;;;;;1.69;78.18;97197.37;1730178;81;21310;-80
2021/04/13 01:55:16;;;;;;;6.10;5.28;;;;;;;1.65;78.14;97191.64;1731057;81;21528;-80
2021/04/13 01:57:58;;;;;;;6.03;5.42;;;;;;;1.65;78.17;97186.52;1705297;81;22261;-80
2021/04/13 02:00:32;;;;;;;8.15;5.58;;;;;;;1.68;78.10;97193.17;1720981;81;21343;-80
2021/04/13 02:03:15;;;;;;;6.15;5.15;;;;;;;1.66;78.02;97195.02;1732744;81;21092;-81
2021/04/13 02:05:47;;;;;;;6.20;5.17;;;;;;;1.60;78.00;97201.37;1732506;81;21143;-85
2021/04/13 02:08:23;;;;;;;7.40;5.83;;;;;;;1.54;78.06;97204.83;1727845;81;21271;-80
2021/04/13 02:10:59;;;;;;;7.55;6.83;;;;;;;1.47;78.16;97199.32;1731782;81;21103;-78
2021/04/13 02:13:30;;;;;;;8.15;6.65;;;;;;;1.44;78.35;97204.63;1720016;81;21135;-78
2021/04/13 02:16:15;;;;;;;8.75;7.10;;;;;;;1.49;78.37;97206.44;1797531;78;22669;-77
2021/04/13 02:18:46;;;;;;;10.18;6.75;;;;;;;1.49;78.18;97209.00;1767785;79;21106;-77
2021/04/13 02:21:37;;;;;;;7.47;6.62;;;;;;;1.42;78.24;97205.20;1772627;79;21138;-77
2021/04/13 02:24:11;;;;;;;11.57;9.80;;;;;;;1.37;78.25;97211.11;1773516;79;21116;-77
2021/04/13 02:26:52;;;;;;;11.88;10.13;;;;;;;1.32;78.44;97211.43;1768886;79;21131;-78
2021/04/13 02:29:21;;;;;;;12.65;11.28;;;;;;;1.27;78.58;97218.58;1765627;79;21312;-78
2021/04/13 02:31:58;;;;;;;10.48;9.00;;;;;;;1.30;78.71;97216.27;1749674;79;21098;-79
2021/04/13 02:34:31;;;;;;;7.75;6.97;;;;;;;1.29;78.51;97218.02;1742986;79;21117;-78
2021/04/13 02:37:03;;;;;;;9.90;8.88;;;;;;;1.32;78.79;97217.83;1781379;79;21117;-78
2021/04/13 02:39:30;;;;;;;8.55;7.72;;;;;;;1.31;78.56;97217.94;1766606;79;21213;-80
2021/04/13 02:42:08;;;;;;;11.63;10.38;;;;;;;1.30;78.67;97213.71;1770881;79;21115;-80
2021/04/13 02:44:36;;;;;;;9.18;8.25;;;;;;;1.34;78.75;97208.30;1774035;79;21125;-80
2021/04/13 02:47:07;;;;;;;10.70;9.60;;;;;;;1.31;78.62;97212.35;1778668;79;21343;-78
2021/04/13 02:49:33;;;;;;;10.13;8.65;;;;;;;1.30;78.72;97213.28;1735616;79;21106;-78
2021/04/13 02:52:03;;;;;;;9.83;8.80;;;;;;;1.38;78.73;97213.56;1704485;79;21100;-78
2021/04/13 02:54:40;;;;;;;9.60;8.73;;;;;;;1.39;78.59;97213.91;1773113;79;21100;-80
2021/04/13 02:57:20;;;;;;;7.40;6.70;;;;;;;1.39;78.52;97204.95;1773410;79;21124;-80
2021/04/13 02:59:46;;;;;;;9.00;8.18;;;;;;;1.38;78.61;97215.30;1768773;79;21323;-80
2021/04/13 03:02:39;;;;;;;7.35;6.65;;;;;;;1.32;78.53;97217.02;1777311;79;21086;-80
2021/04/13 03:05:06;;;;;;;8.03;7.25;;;;;;;1.34;78.45;97217.72;1770095;79;21348;-80
2021/04/13 03:07:37;;;;;;;7.75;7.05;;;;;;;1.38;78.60;97211.00;1776120;79;21296;-78
2021/04/13 03:10:13;;;;;;;8.58;7.75;;;;;;;1.36;78.46;97209.01;1771922;79;21295;-78
2021/04/13 03:12:45;;;;;;;8.53;7.72;;;;;;;1.33;78.46;97213.52;1774297;79;21117;-78
2021/04/13 03:15:15;;;;;;;9.55;8.65;;;;;;;1.33;78.71;97221.20;1770637;79;21095;-78
2021/04/13 03:17:50;;;;;;;7.22;6.45;;;;;;;1.34;78.65;97220.28;1757946;80;21142;-77
2021/04/13 03:20:20;;;;;;;9.65;8.28;;;;;;;1.33;78.55;97219.92;1755825;80;21095;-77
2021/04/13 03:22:46;;;;;;;8.90;8.00;;;;;;;1.30;78.46;97229.92;1756161;80;21335;-77
2021/04/13 03:25:13;;;;;;;10.43;9.25;;;;;;;1.32;78.66;97228.53;1765951;80;21453;-77
2021/04/13 03:27:39;;;;;;;10.72;9.40;;;;;;;1.31;78.59;97234.12;1742235;80;21454;-77
2021/04/13 03:30:15;;;;;;;14.90;11.08;;;;;;;1.28;78.58;97238.60;1764100;80;21414;-77
2021/04/13 03:32:52;;;;;;;12.15;9.85;;;;;;;1.25;78.64;97228.57;1754082;80;21127;-77
2021/04/13 03:35:20;;;;;;;10.23;8.65;;;;;;;1.27;78.66;97239.06;1744837;80;21164;-77
2021/04/13 03:37:47;;;;;;;11.57;9.68;;;;;;;1.31;78.61;97239.70;1764274;80;21130;-76
2021/04/13 03:40:18;;;;;;;13.10;10.40;;;;;;;1.26;78.65;97237.42;1765681;80;21111;-77
2021/04/13 03:42:44;;;;;;;16.00;11.68;;;;;;;1.28;78.71;97250.13;1766113;80;21126;-78
2021/04/13 03:45:13;;;;;;;15.80;12.00;;;;;;;1.22;78.86;97246.24;1752900;80;21144;-78
2021/04/13 03:47:39;;;;;;;14.07;10.08;;;;;;;1.20;78.75;97244.25;1775764;80;21145;-77
2021/04/13 03:50:09;;;;;;;13.58;10.30;;;;;;;1.19;78.72;97248.55;1759600;80;21075;-76
2021/04/13 03:52:35;;;;;;;11.45;9.90;;;;;;;1.13;78.59;97252.78;1764990;80;21467;-77
2021/04/13 03:55:21;;;;;;;10.68;9.60;;;;;;;1.08;78.67;97245.88;1763610;80;21243;-77
2021/04/13 03:57:47;;;;;;;12.43;10.38;;;;;;;1.08;78.74;97255.30;1763571;80;21333;-77
2021/04/13 04:00:22;;;;;;;14.00;11.90;;;;;;;1.05;78.81;97255.50;1758458;80;21066;-77
2021/04/13 04:02:49;;;;;;;10.68;9.48;;;;;;;1.03;78.96;97250.95;1761112;80;21122;-77
2021/04/13 04:05:19;;;;;;;10.00;8.83;;;;;;;1.02;78.94;97251.41;1758552;80;21267;-77
2021/04/13 04:07:54;;;;;;;8.83;7.90;;;;;;;1.02;78.83;97250.14;1755136;80;21762;-77
2021/04/13 04:10:49;;;;;;;9.05;7.92;;;;;;;1.06;78.90;97242.61;1768853;80;21243;-76
2021/04/13 04:13:28;;;;;;;7.60;6.85;;;;;;;1.01;78.86;97250.23;1752089;80;21138;-77
2021/04/13 04:16:17;;;;;;;8.83;7.33;;;;;;;1.01;79.03;97245.94;1766950;80;21062;-77
2021/04/13 04:18:49;;;;;;;7.60;6.53;;;;;;;1.02;79.05;97248.03;1633774;83;21192;-77
2021/04/13 04:21:21;;;;;;;7.62;6.92;;;;;;;1.06;79.06;97254.12;1756836;80;21225;-77
2021/04/13 04:23:54;;;;;;;6.50;5.75;;;;;;;1.07;78.86;97250.64;1723703;81;21280;-77
2021/04/13 04:26:23;;;;;;;7.42;6.55;;;;;;;1.16;79.11;97253.88;1762816;80;21449;-77
2021/04/13 04:28:49;;;;;;;8.70;7.28;;;;;;;1.22;78.96;97251.83;1764013;80;21109;-77
2021/04/13 04:31:35;;;;;;;8.40;7.42;;;;;;;1.17;78.83;97255.98;1764150;80;21097;-76
2021/04/13 04:34:19;;;;;;;9.53;7.47;;;;;;;1.16;78.92;97256.91;1762255;80;21492;-77
2021/04/13 04:36:51;;;;;;;10.15;9.00;;;;;;;1.17;78.87;97263.20;1751971;80;21075;-76
2021/04/13 04:39:27;;;;;;;8.78;7.87;;;;;;;1.20;78.79;97262.98;1755949;80;21094;-76
2021/04/13 04:41:56;;;;;;;13.75;11.08;;;;;;;1.27;78.84;97268.97;1754149;80;21081;-76
2021/04/13 04:44:27;;;;;;;11.65;10.45;;;;;;;1.30;78.85;97275.16;1757255;80;21439;-76
2021/04/13 04:46:58;;;;;;;9.68;8.65;;;;;;;1.31;78.78;97272.98;1757765;80;21337;-76
2021/04/13 04:49:22;;;;;;;9.18;8.15;;;;;;;1.26;78.55;97283.97;1754711;80;21110;-75
2021/04/13 04:51:51;;;;;;;10.55;8.53;;;;;;;1.17;78.51;97283.67;1762829;80;21948;-75
2021/04/13 04:54:17;;;;;;;8.15;7.35;;;;;;;1.17;78.58;97281.58;1758385;80;21125;-76
2021/04/13 04:56:43;;;;;;;9.15;7.47;;;;;;;1.17;78.45;97280.30;1755276;80;21133;-75
2021/04/13 04:59:09;;;;;;;6.45;5.75;;;;;;;1.16;78.57;97279.48;1761770;80;21431;-76
2021/04/13 05:01:35;;;;;;;7.03;6.30;;;;;;;1.13;78.42;97282.68;1758935;80;21133;-76
2021/04/13 05:04:01;;;;;;;9.43;7.28;;;;;;;1.06;78.56;97287.39;1758333;80;21309;-76
2021/04/13 05:06:27;;;;;;;11.05;8.78;;;;;;;1.06;78.56;97294.25;1764025;80;21317;-76
2021/04/13 05:08:54;;;;;;;11.10;9.85;;;;;;;1.05;78.57;97286.22;1762444;80;21094;-75
2021/04/13 05:11:22;;;;;;;9.80;8.83;;;;;;;1.01;78.54;97291.19;1761236;80;21278;-76
2021/04/13 05:13:48;;;;;;;9.78;8.50;;;;;;;1.06;78.77;97291.70;1751738;80;21105;-76
2021/04/13 05:16:14;;;;;;;10.38;9.28;;;;;;;1.06;78.74;97295.07;1767666;80;21187;-76
2021/04/13 05:18:40;;;;;;;9.23;8.13;;;;;;;1.11;78.96;97285.34;1770864;80;21103;-76
2021/04/13 05:21:06;;;;;;;9.43;8.08;;;;;;;1.12;78.67;97293.38;1768260;80;21296;-76
2021/04/13 05:23:33;;;;;;;7.15;6.45;;;;;;;1.08;78.75;97289.39;1779983;80;21308;-76
2021/04/13 05:25:59;;;;;;;9.08;8.18;;;;;;;1.11;78.98;97290.92;1771830;80;21957;-76
2021/04/13 05:28:26;;;;;;;10.08;9.03;;;;;;;1.04;78.68;97294.36;1777137;80;21293;-76
2021/04/13 05:30:52;;;;;;;8.45;7.58;;;;;;;1.08;78.90;97294.97;1775038;80;21090;-76
2021/04/13 05:33:19;;;;;;;8.98;7.90;;;;;;;1.12;78.99;97290.82;1766852;80;21094;-76
2021/04/13 05:35:44;;;;;;;10.85;8.65;;;;;;;1.01;78.67;97287.34;1769131;80;21407;-80
2021/04/13 05:38:18;;;;;;;9.85;8.40;;;;;;;1.01;78.91;97283.05;1763716;80;21074;-79
2021/04/13 05:40:44;;;;;;;8.43;7.60;;;;;;;1.10;79.03;97286.27;1745643;82;21259;-77
2021/04/13 05:43:11;;;;;;;8.65;7.70;;;;;;;1.30;78.96;97293.93;1766934;80;21196;-76
2021/04/13 05:45:39;;;;;;;8.88;8.03;;;;;;;1.30;78.96;97293.93;1778323;80;21688;-78
2021/04/13 05:48:06;;;;;;;9.30;7.67;;;;;;;1.36;78.71;97291.41;1757787;80;21177;-78
2021/04/13 05:50:35;;;;;;;8.80;7.83;;;;;;;1.34;78.61;97289.42;1757957;80;21297;-79
2021/04/13 05:53:01;;;;;;;11.43;9.50;;;;;;;1.35;78.64;97289.31;1785294;80;21114;-78
2021/04/13 05:55:30;;;;;;;9.88;8.73;;;;;;;1.38;78.54;97295.97;1776754;80;21067;-76
2021/04/13 05:57:56;;;;;;;7.65;6.75;;;;;;;1.48;78.48;97288.86;1771631;80;21166;-79
2021/04/13 06:00:24;;;;;;;11.80;9.73;;;;;;;1.58;78.40;97295.44;1699208;80;21244;-79
2021/04/13 06:02:50;;;;;;;9.83;8.75;;;;;;;1.63;78.37;97299.81;1770955;80;21134;-77
2021/04/13 06:05:16;;;;;;;10.10;8.98;;;;;;;1.66;78.23;97303.44;1770675;80;21125;-80
2021/04/13 06:07:43;;;;;;;9.28;7.15;;;;;;;1.67;78.09;97305.54;1776038;80;21641;-76
2021/04/13 06:10:10;;;;;;;10.98;8.98;;;;;;;1.63;77.76;97301.55;1767304;80;21264;-79
2021/04/13 06:12:36;;;;;;;10.63;9.43;;;;;;;1.58;77.82;97303.13;1769520;80;21120;-76
2021/04/13 06:15:05;;;;;;;12.82;9.75;;;;;;;1.59;77.77;97303.94;1761592;80;21099;-76
2021/04/13 06:17:31;;;;;;;13.30;10.13;;;;;;;1.68;77.99;97305.89;1778445;80;21212;-78
2021/04/13 06:19:57;;;;;;;11.97;10.43;;;;;;;1.82;78.02;97298.09;1781668;80;21220;-80
2021/04/13 06:22:23;;;;;;;8.40;6.90;;;;;;;1.86;77.57;97299.98;1764815;80;21105;-76
2021/04/13 06:24:49;;;;;;;9.58;7.67;;;;;;;1.72;77.07;97295.33;1769079;80;21252;-76
2021/04/13 06:44:41;;;;;;;10.18;8.00;;;;;;;1.91;77.74;97319.69;1810777;77;22244;-77
2021/04/13 06:47:51;;;;;;;11.05;9.88;;;;;;;1.98;77.83;97318.36;1801815;78;21080;-76
2021/04/13 06:50:51;;;;;;;10.30;9.25;;;;;;;2.13;77.36;97325.46;1817143;78;21232;-79
2021/04/13 06:53:52;;;;;;;8.73;7.83;;;;;;;2.23;77.43;97328.55;1824924;78;21121;-75
2021/04/13 06:56:39;;;;;;;13.03;9.83;;;;;;;2.29;76.87;97328.13;1785031;78;21105;-75
2021/04/13 07:09:45;;;;;;;10.65;9.43;;;;;;;2.30;76.32;97325.92;1802354;77;22973;-77
2021/04/13 07:12:26;;;;;;;11.80;8.75;;;;;;;2.14;76.43;97327.91;1766157;80;21082;-77
2021/04/13 07:15:17;;;;;;;9.58;8.45;;;;;;;2.18;76.71;97322.92;1769442;80;21106;-76
2021/04/13 07:18:06;;;;;;;13.32;10.28;;;;;;;2.14;76.48;97328.38;1794467;78;21293;-76
2021/04/13 07:20:37;;;;;;;13.80;11.80;;;;;;;2.09;76.56;97316.67;1773447;80;21215;-75
2021/04/13 07:23:13;;;;;;;13.78;12.20;;;;;;;2.08;76.60;97316.32;1755815;80;21090;-75
2021/04/13 07:26:01;;;;;;;14.60;13.18;;;;;;;2.24;76.88;97323.77;1824015;76;28281;-76
2021/04/13 07:28:37;;;;;;;13.55;11.20;;;;;;;2.43;76.87;97327.14;1839456;77;21085;-75
2021/04/13 07:31:12;;;;;;;12.82;11.22;;;;;;;2.59;76.42;97325.13;1824529;77;21236;-79
2021/04/13 07:33:38;;;;;;;12.07;10.18;;;;;;;2.70;76.44;97327.76;1827992;76;21236;-75
2021/04/13 07:36:12;;;;;;;9.63;8.63;;;;;;;2.76;75.94;97328.23;1837889;76;21236;-75
2021/04/13 07:38:44;;;;;;;11.03;10.00;;;;;;;2.79;75.61;97334.45;1805044;78;21293;-76
2021/04/13 07:41:40;;;;;;;10.30;9.23;;;;;;;2.80;75.79;97330.50;1767335;79;21208;-79
2021/04/13 07:44:28;;;;;;;9.53;8.60;;;;;;;2.92;75.81;97323.17;1765447;79;21121;-78
2021/04/13 07:47:25;;;;;;;9.43;8.33;;;;;;;3.17;75.78;97321.39;1813905;78;22906;-79
2021/04/13 07:49:57;;;;;;;12.23;8.70;;;;;;;3.19;75.17;97329.80;1686991;81;21239;-79
2021/04/13 07:52:49;;;;;;;11.12;9.75;;;;;;;3.11;75.01;97328.28;1741132;80;21098;-76
2021/04/13 07:55:23;;;;;;;10.58;9.53;;;;;;;3.05;74.94;97324.39;1708000;81;22102;-75
2021/04/13 07:57:57;;;;;;;9.80;8.68;;;;;;;2.98;74.89;97334.30;1723100;81;21268;-79
2021/04/13 08:00:36;;;;;;;10.90;8.45;;;;;;;2.98;74.90;97335.58;1764151;79;22882;-75
2021/04/13 08:03:31;;;;;;;10.45;9.35;;;;;;;2.90;74.85;97337.87;1731173;80;21114;-75
2021/04/13 08:06:03;;;;;;;11.08;10.00;;;;;;;2.80;74.86;97341.23;1688853;82;21154;-77
2021/04/13 08:08:34;;;;;;;;;;;;;;;2.72;74.96;97340.47;1731600;80;21133;-78
2021/04/13 08:11:12;;;;;;;11.35;10.25;;;;;;;2.86;75.27;97340.31;1727640;80;20160;-79
2021/04/13 08:13:40;;;;;;;12.93;11.10;;;;;;;3.00;75.46;97336.75;1734529;80;21153;-75
2021/04/13 08:16:06;;;;;;;12.85;11.35;;;;;;;3.12;75.39;97337.61;1725006;80;21586;-79
2021/04/13 08:18:41;;;;;;;10.68;9.55;;;;;;;3.20;75.22;97336.58;1727246;80;21102;-79
2021/04/13 08:21:33;;;;;;;11.33;9.83;;;;;;;3.24;74.81;97333.66;1704441;82;21113;-74
2021/04/13 08:23:59;;;;;;;12.55;11.18;;;;;;;3.07;74.26;97341.78;1708006;80;21365;-75
2021/04/13 08:26:42;;;;;;;13.90;10.80;;;;;;;3.01;74.80;97340.95;1741802;80;21086;-78
2021/04/13 08:29:40;;;;;;;15.20;12.33;;;;;;;3.14;74.96;97342.17;1730833;80;21110;-76
2021/04/13 08:35:36;;;;;;;13.93;12.03;;;;;;;3.17;74.33;97340.19;1740449;80;21140;-79
2021/04/13 08:38:28;;;;;;;14.38;11.00;;;;;;;3.06;74.62;97336.30;1734746;80;21114;-75
2021/04/13 08:41:22;;;;;;;10.90;9.53;;;;;;;3.01;74.59;97337.10;1733453;80;21129;-78
2021/04/13 08:44:19;;;;;;;14.87;12.53;;;;;;;2.90;74.32;97331.91;1734123;80;21078;-78
2021/04/13 08:47:05;;;;;;;13.10;11.30;;;;;;;2.73;74.62;97326.71;1727775;80;21316;-76
2021/04/13 08:49:42;;;;;;;13.58;10.93;;;;;;;2.85;74.91;97325.02;1699988;83;21114;-76
2021/04/13 08:52:42;;;;;;;16.07;12.35;;;;;;;2.88;74.62;97325.61;1733306;80;21125;-76
2021/04/13 08:55:22;;;;;;;12.45;10.50;;;;;;;2.94;74.97;97325.19;1723424;80;21078;-79
2021/04/13 08:58:19;;;;;;;14.87;13.30;;;;;;;3.05;75.08;97329.98;1721491;80;21145;-79
2021/04/13 09:00:51;;;;;;;16.07;13.30;;;;;;;3.02;74.87;97324.62;1736231;80;21118;-76
2021/04/13 09:03:20;;;;;;;17.15;13.45;;;;;;;3.07;74.93;97326.37;1734840;80;21119;-78
2021/04/13 09:06:07;;;;;;;15.43;13.05;;;;;;;3.17;74.67;97314.97;1675942;83;21368;-80
2021/04/13 09:08:48;;;;;;;15.28;13.65;;;;;;;3.21;74.36;97321.52;1736452;80;21122;-77
2021/04/13 09:11:32;;;;;;;18.10;14.50;;;;;;;3.29;74.31;97319.22;1725119;80;21153;-76
2021/04/13 09:14:15;;;;;;;14.65;13.05;;;;;;;3.52;74.59;97315.73;1726866;80;21301;-76
2021/04/13 09:16:47;;;;;;;15.65;13.98;;;;;;;3.81;74.23;97311.44;1749301;80;21253;-79
2021/04/13 09:19:33;;;;;;;17.00;13.50;;;;;;;3.90;73.56;97314.14;1708956;82;21096;-78
2021/04/13 09:22:14;;;;;;;19.87;14.83;;;;;;;3.96;73.26;97311.55;1736886;80;21110;-80
2021/04/13 09:24:43;;;;;;;16.93;14.38;;;;;;;4.06;73.54;97311.17;1739552;82;21224;-76
2021/04/13 09:27:26;;;;;;;22.58;16.55;;;;;;;4.18;73.27;97311.52;1739936;82;21106;-76
2021/04/13 09:29:59;;;;;;;17.00;15.05;;;;;;;4.15;72.86;97305.33;1735050;80;21329;-79
2021/04/13 09:32:34;;;;;;;16.47;14.73;;;;;;;4.25;72.94;97308.48;1742712;80;21114;-79
2021/04/13 09:35:29;;;;;;;18.90;16.27;;;;;;;4.28;72.99;97299.24;1739060;80;21098;-76
2021/04/13 09:38:38;;;;;;;17.15;14.70;;;;;;;4.27;72.13;97298.89;1731150;80;21069;-78
2021/04/13 09:41:43;;;;;;;20.12;15.75;;;;;;;4.21;72.19;97298.41;1737654;82;21127;-78
2021/04/13 09:44:32;;;;;;;17.85;14.30;;;;;;;4.16;72.28;97300.53;1726696;82;21082;-78
2021/04/13 09:47:10;;;;;;;18.57;14.50;;;;;;;4.11;72.24;97297.98;1730069;80;21078;-80
2021/04/13 09:49:50;;;;;;;19.30;15.30;;;;;;;3.95;72.43;97291.92;1734072;80;21109;-75
2021/04/13 09:53:05;;;;;;;18.62;15.35;;;;;;;4.04;72.88;97292.95;1732228;80;21213;-77
2021/04/13 09:56:27;;;;;;;18.65;15.98;;;;;;;4.14;72.75;97290.02;1734516;80;21481;-78
2021/04/13 09:59:37;;;;;;;21.07;15.55;;;;;;;4.15;72.58;97289.90;1736074;80;21178;-78
2021/04/13 10:02:37;;;;;;;17.75;14.70;;;;;;;4.03;72.64;97293.42;1717808;81;21337;-76
2021/04/13 10:05:15;;;;;;;18.27;14.95;;;;;;;3.91;72.55;97286.20;1715306;81;21134;-76
2021/04/13 10:08:01;;;;;;;18.32;13.83;;;;;;;3.79;72.81;97287.14;1720024;82;21277;-77
2021/04/13 10:11:11;;;;;;;16.57;13.85;;;;;;;3.68;72.67;97283.74;1721606;81;21237;-76
2021/04/13 10:14:17;;;;;;;20.10;16.17;;;;;;;3.54;73.00;97279.64;1715925;81;21115;-76
2021/04/13 10:17:22;;;;;;;17.27;15.50;;;;;;;3.32;73.09;97280.45;1717804;81;21322;-77
2021/04/13 10:20:21;;;;;;;19.85;16.23;;;;;;;3.18;73.50;97271.66;1713525;81;21107;-78
2021/04/13 10:23:26;;;;;;;17.75;15.23;;;;;;;2.97;73.70;97273.61;1724565;81;21091;-79
2021/04/13 10:26:30;;;;;;;18.40;15.70;;;;;;;2.96;74.35;97282.25;1751239;79;21074;-76
2021/04/13 10:29:45;;;;;;;18.45;15.40;;;;;;;2.91;74.43;97286.06;1811123;76;24205;-79
2021/04/13 10:33:05;;;;;;;23.65;18.67;;;;;;;2.84;74.71;97293.41;1809814;78;21083;-80
2021/04/13 10:36:12;;;;;;;24.27;16.60;;;;;;;2.91;74.98;97283.03;1810314;78;21081;-80
2021/04/13 10:38:50;;;;;;;23.25;16.27;;;;;;;2.97;74.59;97291.58;1807040;78;21288;-79
2021/04/13 10:42:04;;;;;;;21.55;17.50;;;;;;;3.07;74.76;97284.47;1806268;79;21145;-77
2021/04/13 10:44:54;;;;;;;22.32;17.42;;;;;;;3.08;74.78;97279.22;1805023;78;21226;-75
2021/04/13 10:47:47;;;;;;;20.92;16.32;;;;;;;3.21;74.87;97270.97;1818039;78;21272;-75
2021/04/13 10:50:35;;;;;;;22.13;16.97;;;;;;;3.29;74.89;97275.08;1815126;78;21329;-78
2021/04/13 10:53:21;;;;;;;19.80;14.70;;;;;;;3.29;74.50;97276.83;1798994;79;21271;-76
2021/04/13 10:55:59;;;;;;;17.57;13.88;;;;;;;3.19;74.48;97284.39;1807103;78;21340;-80
2021/04/13 10:59:20;;;;;;;19.15;12.95;;;;;;;3.04;74.47;97273.97;1804778;79;21330;-77
2021/04/13 11:02:14;;;;;;;24.82;15.43;;;;;;;3.10;74.78;97270.97;1813312;78;21290;-80
2021/04/13 11:05:12;;;;;;;28.05;17.65;;;;;;;3.27;74.74;97259.44;1816968;77;22702;-77
2021/04/13 11:08:07;;;;;;;25.17;17.25;;;;;;;3.38;74.92;97258.61;1802736;78;21078;-77
2021/04/13 11:10:42;;;;;;;18.50;14.63;;;;;;;3.48;74.65;97246.72;1808807;78;21216;-78
2021/04/13 11:13:59;;;;;;;24.23;15.55;;;;;;;3.53;74.45;97251.84;1808151;78;21129;-78
2021/04/13 11:17:11;;;;;;;24.90;16.50;;;;;;;3.55;74.07;97251.72;1793917;78;21090;-79
2021/04/13 11:20:16;;;;;;;20.23;14.65;;;;;;;3.65;74.06;97245.43;1802737;78;21090;-80
2021/04/13 11:23:21;;;;;;;21.52;13.95;;;;;;;3.83;74.17;97246.58;1785034;79;21122;-78
2021/04/13 11:26:19;;;;;;;23.40;16.35;;;;;;;4.13;73.83;97249.34;1752749;81;21118;-79
2021/04/13 11:29:34;;;;;;;22.37;13.60;;;;;;;4.47;73.87;97238.48;1753487;81;21129;-80
2021/04/13 11:32:45;;;;;;;19.60;14.25;;;;;;;4.67;72.60;97237.34;1742202;81;21332;-73
2021/04/13 11:35:37;;;;;;;16.42;12.43;;;;;;;4.76;72.74;97235.32;1741865;81;21130;-75
2021/04/13 11:38:37;;;;;;;20.60;15.15;;;;;;;4.81;72.24;97244.30;1746256;81;21157;-76
2021/04/13 11:41:32;;;;;;;20.90;15.98;;;;;;;4.75;71.96;97242.70;1759835;81;21299;-75
2021/04/13 11:44:15;;;;;;;16.12;14.18;;;;;;;4.72;72.08;97239.09;1745018;81;21126;-74
2021/04/13 11:47:10;;;;;;;19.42;13.80;;;;;;;4.76;72.07;97240.00;1700200;82;21437;-75
2021/04/13 11:49:47;;;;;;;17.02;13.00;;;;;;;4.90;71.99;97232.44;1759169;81;21086;-75
2021/04/13 11:52:47;;;;;;;17.40;14.07;;;;;;;4.98;71.59;97229.22;1802139;77;22885;-74
2021/04/13 11:55:31;;;;;;;17.10;13.38;;;;;;;4.96;71.64;97235.79;1770459;78;21480;-75
2021/04/13 11:58:22;;;;;;;18.42;13.72;;;;;;;4.90;71.61;97229.86;1715239;81;21325;-75
2021/04/13 12:00:50;;;;;;;14.10;11.25;;;;;;;4.95;72.12;97226.91;1768536;78;21232;-75
2021/04/13 12:03:24;;;;;;;14.33;11.95;;;;;;;4.87;71.57;97227.98;1770263;78;21114;-80
2021/04/13 12:05:55;;;;;;;15.32;12.43;;;;;;;4.70;71.71;97223.74;1769657;78;21217;-78
2021/04/13 12:08:36;;;;;;;14.65;12.18;;;;;;;4.69;71.78;97218.72;1769324;78;21114;-78
2021/04/13 12:11:07;;;;;;;16.20;11.83;;;;;;;4.50;71.63;97220.20;1770492;78;21318;-80
2021/04/13 12:13:49;;;;;;;14.18;12.68;;;;;;;4.28;71.52;97210.02;1750989;79;21101;-77
2021/04/13 12:16:21;;;;;;;16.42;13.40;;;;;;;4.16;71.82;97211.80;1727202;78;21118;-76
2021/04/13 12:19:13;;;;;;;16.97;13.90;;;;;;;4.05;72.07;97205.86;1791472;78;21089;-80
2021/04/13 12:21:44;;;;;;;16.85;13.95;;;;;;;3.96;72.52;97208.70;1741007;78;21228;-78
2021/04/13 12:24:42;;;;;;;20.62;15.30;;;;;;;3.80;72.57;97200.08;1776786;78;21248;-76
2021/04/13 12:27:32;;;;;;;20.65;16.45;;;;;;;3.71;72.77;97196.11;1772661;78;21320;-75
2021/04/13 12:30:29;;;;;;;17.75;14.10;;;;;;;3.67;72.98;97199.86;1767138;78;21212;-75
2021/04/13 12:33:01;;;;;;;20.97;17.65;;;;;;;3.52;73.09;97199.29;1773512;78;21347;-76
2021/04/13 12:35:50;;;;;;;20.70;16.50;;;;;;;3.23;73.26;97172.78;1770705;78;21083;-76
2021/04/13 12:38:45;;;;;;;17.12;14.68;;;;;;;3.40;73.50;97198.47;1771363;78;21153;-76
2021/04/13 12:41:26;;;;;;;20.48;17.20;;;;;;;3.55;73.66;97196.01;1776687;78;21117;-78
2021/04/13 12:43:58;;;;;;;19.50;17.40;;;;;;;3.73;73.76;97189.09;1767779;78;21303;-78
2021/04/13 12:46:39;;;;;;;20.00;18.00;;;;;;;3.82;73.82;97187.11;1777722;78;21093;-78
2021/04/13 12:49:17;;;;;;;23.57;19.30;;;;;;;3.99;73.80;97181.45;1765610;78;21287;-78
2021/04/13 12:52:07;;;;;;;24.18;19.52;;;;;;;4.14;73.75;97177.67;1777259;79;21111;-77
2021/04/13 12:57:20;;;;;;;23.40;19.50;;;;;;;4.22;73.35;97169.32;1757708;79;22989;-75
2021/04/13 13:00:08;;;;;;;23.67;18.30;;;;;;;4.12;73.37;97174.41;1728748;80;21093;-77
2021/04/13 13:02:38;;;;;;;26.48;21.07;;;;;;;4.00;73.33;97164.27;1744160;80;21454;-79
2021/04/13 13:05:26;;;;;;;28.30;21.25;;;;;;;3.84;73.30;97170.62;1729210;80;21134;-77
2021/04/13 13:10:42;;;;;;;20.68;15.85;;;;;;;3.48;73.69;97172.20;1792700;77;23193;-77
2021/04/13 13:13:19;;;;;;;21.15;15.95;;;;;;;3.20;73.97;97170.92;1770632;78;21086;-76